Deniliquin Airport


Codes: YDLQ/DNQ
Name: Deniliquin Airport
City: Deniliquin
Country: Australia
Elevation: 316 ft.
Website:
Wikipedia:

Photos at Deniliquin Airport


   Photos courtesy of SpottingLog. You can add your own sightings and photos by signing up for a free trial today.



No photos found.

Weather at Deniliquin Airport


Time (UTC)DescriptionTempratureWindCloud coverageVisibilityPressureHumidity
13-Jun-2024 03:00Overcast Clouds10°C4 mph, S100%10000m1022hPa63%
13-Jun-2024 06:00Overcast Clouds11°C4 mph, SW100%10000m1022hPa60%
13-Jun-2024 09:00Overcast Clouds9°C4 mph, SE100%10000m1022hPa69%
13-Jun-2024 12:00Overcast Clouds7°C2 mph, E100%10000m1022hPa75%
13-Jun-2024 15:00Overcast Clouds6°C2 mph, SE95%10000m1022hPa76%
13-Jun-2024 18:00Overcast Clouds6°C4 mph, SE89%10000m1021hPa78%
13-Jun-2024 21:00Overcast Clouds5°C4 mph, SE94%10000m1021hPa79%
14-Jun-2024 00:00Overcast Clouds8°C2 mph, E97%10000m1022hPa68%
14-Jun-2024 03:00Light Rain8°C4 mph, E100%10000m1020hPa76%
14-Jun-2024 06:00Light Rain7°C2 mph, E100%10000m1019hPa90%
14-Jun-2024 09:00Moderate Rain7°C4 mph, E100%10000m1020hPa95%
14-Jun-2024 12:00Light Rain7°C4 mph, SE100%10000m1021hPa96%
14-Jun-2024 15:00Light Rain7°C4 mph, E100%10000m1020hPa94%
14-Jun-2024 18:00Light Rain7°C4 mph, SE100%10000m1020hPa94%
14-Jun-2024 21:00Light Rain7°C4 mph, SE100%10000m1021hPa93%
15-Jun-2024 00:00Overcast Clouds8°C2 mph, E100%10000m1022hPa87%
15-Jun-2024 03:00Light Rain8°C4 mph, SE100%10000m1021hPa90%
15-Jun-2024 06:00Light Rain8°C2 mph, SE100%10000m1020hPa93%
15-Jun-2024 09:00Overcast Clouds8°C2 mph, SW98%10000m1021hPa93%
15-Jun-2024 12:00Overcast Clouds7°C4 mph, SW92%10000m1021hPa94%
15-Jun-2024 15:00Clear Sky6°C7 mph, SW8%10000m1021hPa95%
15-Jun-2024 18:00Clear Sky5°C7 mph, SW9%10000m1021hPa95%
15-Jun-2024 21:00Clear Sky4°C7 mph, S7%10000m1022hPa94%
16-Jun-2024 00:00Clear Sky8°C9 mph, S4%10000m1023hPa77%
16-Jun-2024 03:00Clear Sky12°C9 mph, S0%10000m1022hPa53%
16-Jun-2024 06:00Clear Sky12°C9 mph, S0%10000m1021hPa49%
16-Jun-2024 09:00Clear Sky7°C7 mph, SW0%10000m1023hPa70%
16-Jun-2024 12:00Clear Sky6°C7 mph, SW0%10000m1024hPa81%
16-Jun-2024 15:00Clear Sky5°C7 mph, SW0%10000m1023hPa92%
16-Jun-2024 18:00Clear Sky4°C7 mph, SW0%10000m1023hPa94%
16-Jun-2024 21:00Clear Sky3°C7 mph, SW0%10000m1024hPa94%
17-Jun-2024 00:00Clear Sky8°C7 mph, S0%10000m1025hPa72%
17-Jun-2024 03:00Clear Sky12°C9 mph, SW0%10000m1023hPa51%
17-Jun-2024 06:00Clear Sky12°C7 mph, SW0%10000m1021hPa54%
17-Jun-2024 09:00Clear Sky7°C7 mph, SW0%10000m1022hPa73%
17-Jun-2024 12:00Clear Sky6°C4 mph, SW0%10000m1023hPa78%
17-Jun-2024 15:00Scattered Clouds5°C4 mph, W45%10000m1022hPa83%
17-Jun-2024 18:00Broken Clouds4°C2 mph, SW59%10000m1021hPa86%
17-Jun-2024 21:00Overcast Clouds4°C0 mph, N100%10000m1020hPa87%
18-Jun-2024 00:00Overcast Clouds8°C4 mph, N100%10000m1020hPa70%